< < Back
Terminal Aerodrome Forecast


Current Version              Previous Versions:   1  2  3  4  5  6  7  8  9  

Terminal Aerodrome Forecast

712
FTUS42 KMLB 210500
TAFDAB
TAF
KDAB 210531Z 2106/2206 VRB03KT P6SM SCT250
     FM211700 08009KT P6SM SCT040 SCT250
     FM212200 12007KT P6SM FEW040 FEW250=



Latest METAR

191
SAUS80 KWBC 210600 RRB
MTRDAB
METAR KDAB 210553Z 21004KT 10SM CLR 26/24 A3009 RMK AO2 SLP189 T02610244
10300 20261 58003


USA.gov is the U.S. government's official web portal to all federal, state and local government web resources and services.